createdAt,value
2024-02-20T04:15:18.789Z,0.00
2024-02-20T04:16:18.962Z,0.00
2024-02-20T04:17:18.954Z,0.00
2024-02-20T04:18:19.300Z,0.00
2024-02-20T04:19:19.358Z,0.00
2024-02-20T04:20:19.370Z,0.00
2024-02-20T04:21:19.488Z,0.00
2024-02-20T04:22:19.590Z,0.00
2024-02-20T04:23:19.705Z,0.00
2024-02-20T04:24:19.888Z,0.00
2024-02-20T04:25:20.054Z,0.00
2024-02-20T04:26:20.127Z,0.00
2024-02-20T04:27:20.281Z,0.00
2024-02-20T04:28:20.502Z,0.00
2024-02-20T04:29:20.531Z,0.00
2024-02-20T04:30:20.680Z,0.00
2024-02-20T04:31:20.862Z,0.00
2024-02-20T04:32:20.975Z,0.00
2024-02-20T04:33:22.327Z,0.00
2024-02-20T04:34:21.330Z,0.00
2024-02-20T04:35:21.453Z,0.00
2024-02-20T04:36:21.477Z,0.00
2024-02-20T04:37:21.629Z,0.00
2024-02-20T04:38:21.785Z,0.00
2024-02-20T04:39:21.931Z,0.00
2024-02-20T04:40:23.061Z,0.00
2024-02-20T04:41:22.247Z,0.00
2024-02-20T04:42:23.341Z,0.00
2024-02-20T04:43:22.566Z,0.00
2024-02-20T04:44:22.657Z,0.00
2024-02-20T04:45:22.814Z,0.00
2024-02-20T04:46:22.933Z,0.00
2024-02-20T04:47:24.601Z,0.00
2024-02-20T04:48:23.208Z,0.00
2024-02-20T04:49:23.377Z,0.00
2024-02-20T04:50:23.495Z,0.00
2024-02-20T04:51:23.547Z,0.00
2024-02-20T04:52:23.680Z,0.00
2024-02-20T04:53:23.795Z,0.00
2024-02-20T04:54:23.966Z,0.00
2024-02-20T04:55:24.060Z,0.00
2024-02-20T04:56:24.198Z,0.00
2024-02-20T04:57:24.385Z,0.00
2024-02-20T04:58:24.515Z,0.00
2024-02-20T04:59:24.602Z,0.00
2024-02-20T05:00:25.668Z,0.00
2024-02-20T05:01:24.964Z,0.00
2024-02-20T05:02:25.033Z,0.00
2024-02-20T05:03:25.106Z,0.00
2024-02-20T05:04:26.272Z,0.00
2024-02-20T05:05:25.365Z,0.00
2024-02-20T05:06:25.568Z,0.00
2024-02-20T05:07:25.856Z,0.00
2024-02-20T05:08:25.797Z,0.00
2024-02-20T05:09:25.947Z,0.00
2024-02-20T05:10:26.146Z,0.00
2024-02-20T05:11:26.288Z,0.00
2024-02-20T05:12:26.396Z,0.00
2024-02-20T05:13:26.553Z,0.00
2024-02-20T05:14:26.679Z,0.00
2024-02-20T05:15:26.816Z,0.00
2024-02-20T05:16:27.849Z,0.00
2024-02-20T05:17:27.059Z,0.00
2024-02-20T05:18:27.179Z,0.00
2024-02-20T05:19:27.481Z,0.00
2024-02-20T05:20:27.435Z,0.00
2024-02-20T05:21:27.522Z,0.00
2024-02-20T05:22:27.720Z,0.00
2024-02-20T05:23:27.779Z,0.00
2024-02-20T05:24:27.905Z,0.00
2024-02-20T05:25:29.054Z,0.00
2024-02-20T05:26:29.125Z,0.00
2024-02-20T05:27:28.309Z,0.00
2024-02-20T05:28:28.512Z,0.00
2024-02-20T05:29:28.607Z,0.00
2024-02-20T05:30:28.773Z,0.00
2024-02-20T05:31:28.911Z,0.00
2024-02-20T05:32:29.067Z,0.00
2024-02-20T05:33:29.293Z,0.00
2024-02-20T05:34:29.384Z,0.00
2024-02-20T05:35:30.632Z,0.00
2024-02-20T05:36:30.554Z,0.00
2024-02-20T05:37:29.725Z,0.00
2024-02-20T05:38:29.840Z,0.00
2024-02-20T05:39:29.998Z,0.00
2024-02-20T05:40:30.125Z,0.00
2024-02-20T05:41:30.275Z,0.00
2024-02-20T05:42:30.393Z,0.00
2024-02-20T05:43:30.595Z,0.00
2024-02-20T05:44:30.684Z,0.00
2024-02-20T05:45:30.828Z,0.00
2024-02-20T05:46:31.988Z,0.00
2024-02-20T05:47:31.217Z,0.00
2024-02-20T05:48:31.323Z,0.00
2024-02-20T05:49:31.626Z,0.00
2024-02-20T05:50:31.606Z,0.00
2024-02-20T05:51:31.763Z,0.00
2024-02-20T05:52:31.862Z,0.00
2024-02-20T05:53:32.876Z,0.00
2024-02-20T05:54:33.004Z,0.00
2024-02-20T05:55:32.248Z,0.00
2024-02-20T05:56:32.280Z,0.00
2024-02-20T05:57:32.411Z,0.00
2024-02-20T05:58:32.672Z,0.00
2024-02-20T05:59:32.687Z,0.00
2024-02-20T06:00:32.840Z,0.00
2024-02-20T06:01:33.048Z,0.00
2024-02-20T06:02:33.926Z,0.00
2024-02-20T06:03:34.198Z,0.00
2024-02-20T06:04:33.327Z,0.00
2024-02-20T06:05:34.505Z,0.00
2024-02-20T06:06:34.618Z,0.00
2024-02-20T06:07:35.517Z,0.00
2024-02-20T06:08:33.789Z,0.00
2024-02-20T06:09:33.914Z,0.00
2024-02-20T06:10:34.050Z,0.00
2024-02-20T06:11:36.858Z,0.00
2024-02-20T06:12:34.223Z,0.00
2024-02-20T06:13:35.411Z,1.00
2024-02-20T06:14:34.488Z,1.00
2024-02-20T06:15:35.365Z,1.00
2024-02-20T06:16:35.743Z,1.00
2024-02-20T06:17:34.913Z,2.00
2024-02-20T06:18:37.958Z,0.00
2024-02-20T06:20:51.681Z,2.00
2024-02-20T06:21:51.833Z,2.00
2024-02-20T06:22:52.071Z,1.00
2024-02-20T06:23:53.035Z,3.00
2024-02-20T06:24:52.214Z,2.00
2024-02-20T06:25:52.398Z,4.00
2024-02-20T06:26:52.452Z,5.00
2024-02-20T06:27:53.005Z,4.00
2024-02-20T06:28:52.892Z,4.00
2024-02-20T06:29:52.844Z,9.00
2024-02-20T06:30:53.028Z,8.00
2024-02-20T06:31:53.076Z,6.00
2024-02-20T06:32:53.368Z,10.00
2024-02-20T06:33:53.650Z,10.00
2024-02-20T06:34:53.623Z,10.00
2024-02-20T06:35:53.647Z,17.00
2024-02-20T06:36:53.931Z,14.00
2024-02-20T06:37:53.910Z,10.00
2024-02-20T06:38:54.017Z,14.00
2024-02-20T06:39:55.339Z,18.00
2024-02-20T06:40:54.396Z,17.00
2024-02-20T06:41:54.446Z,21.00
2024-02-20T06:42:54.616Z,22.00
2024-02-20T06:43:54.718Z,24.00
2024-02-20T06:44:54.821Z,26.00
2024-02-20T06:45:55.127Z,22.00
2024-02-20T06:46:55.066Z,30.00
2024-02-20T06:47:55.223Z,31.00
2024-02-20T06:48:55.529Z,32.00
2024-02-20T06:49:57.423Z,35.00
2024-02-20T06:50:55.624Z,38.00
2024-02-20T06:51:55.851Z,37.00
2024-02-20T06:52:55.965Z,42.00
2024-02-20T06:53:56.148Z,41.00
2024-02-20T06:54:56.217Z,40.00
2024-02-20T06:55:56.529Z,42.00
2024-02-20T06:56:56.617Z,47.00
2024-02-20T06:57:56.674Z,45.00
2024-02-20T06:58:56.814Z,46.00
2024-02-20T06:59:56.792Z,48.00
2024-02-20T07:00:57.066Z,52.00
2024-02-20T07:01:58.218Z,55.00
2024-02-20T07:02:57.836Z,53.00
2024-02-20T07:03:58.091Z,57.00
2024-02-20T07:04:58.356Z,60.00
2024-02-20T07:05:57.705Z,60.00
2024-02-20T07:06:58.846Z,61.00
2024-02-20T07:07:58.031Z,63.00
2024-02-20T07:08:57.952Z,63.00
2024-02-20T07:09:58.109Z,68.00
2024-02-20T07:10:58.258Z,65.00
2024-02-20T07:11:59.271Z,68.00
2024-02-20T07:12:59.440Z,72.00
2024-02-20T07:13:58.586Z,74.00
2024-02-20T07:14:58.750Z,77.00
2024-02-20T07:15:59.751Z,74.00
2024-02-20T07:16:59.902Z,74.00
2024-02-20T07:17:59.103Z,81.00
2024-02-20T07:18:59.404Z,83.00
2024-02-20T07:19:59.549Z,81.00
2024-02-20T07:20:59.412Z,93.00
2024-02-20T07:21:59.635Z,96.00
2024-02-20T07:22:59.733Z,102.00
2024-02-20T07:24:00.020Z,97.00
2024-02-20T07:25:00.067Z,107.00
2024-02-20T07:26:00.076Z,103.00
2024-02-20T07:27:01.284Z,102.00
2024-02-20T07:28:00.519Z,99.00
2024-02-20T07:29:00.563Z,109.00
2024-02-20T07:30:00.688Z,102.00
2024-02-20T07:31:00.739Z,93.00
2024-02-20T07:32:01.895Z,104.00
2024-02-20T07:33:01.350Z,100.00
2024-02-20T07:34:09.248Z,105.00
2024-02-20T07:35:02.502Z,119.00
2024-02-20T07:36:01.550Z,122.00
2024-02-20T07:37:01.787Z,123.00
2024-02-20T07:38:02.421Z,137.00
2024-02-20T07:39:01.798Z,131.00
2024-02-20T07:40:02.169Z,133.00
2024-02-20T07:41:02.636Z,132.00
2024-02-20T07:42:04.154Z,131.00
2024-02-20T07:43:02.631Z,145.00
2024-02-20T07:44:02.441Z,137.00
2024-02-20T07:45:02.551Z,147.00
2024-02-20T07:46:03.284Z,158.00
2024-02-20T07:47:03.763Z,168.00
2024-02-20T07:48:03.139Z,164.00
2024-02-20T07:49:03.646Z,178.00
2024-02-20T07:50:03.735Z,184.00
2024-02-20T07:51:03.381Z,178.00
2024-02-20T07:52:03.541Z,180.00
2024-02-20T07:53:05.064Z,179.00
2024-02-20T07:54:03.826Z,198.00
2024-02-20T07:55:03.958Z,194.00
2024-02-20T07:57:20.641Z,231.00
2024-02-20T07:58:27.783Z,236.00
2024-02-20T07:59:22.880Z,261.00
2024-02-20T08:00:21.346Z,200.00
2024-02-20T08:01:22.581Z,215.00
2024-02-20T08:02:21.155Z,277.00
2024-02-20T08:03:20.541Z,227.00
2024-02-20T08:04:20.471Z,273.00
2024-02-20T08:05:22.023Z,331.00
2024-02-20T08:06:24.347Z,404.00
2024-02-20T08:07:21.750Z,328.00
2024-02-20T08:08:20.990Z,411.00
2024-02-20T08:09:20.911Z,280.00
2024-02-20T08:10:21.108Z,309.00
2024-02-20T08:11:21.219Z,314.00
2024-02-20T08:12:21.437Z,314.00
2024-02-20T08:13:21.654Z,291.00
2024-02-20T08:14:21.657Z,302.00
2024-02-20T08:15:21.953Z,314.00
2024-02-20T08:16:22.961Z,316.00
2024-02-20T08:17:22.735Z,281.00
2024-02-20T08:18:22.267Z,346.00
2024-02-20T08:19:24.343Z,329.00
2024-02-20T08:20:22.486Z,369.00
2024-02-20T08:21:23.623Z,399.00
2024-02-20T08:22:23.602Z,396.00
2024-02-20T08:23:23.980Z,394.00
2024-02-20T08:24:23.313Z,397.00
2024-02-20T08:25:23.235Z,364.00
2024-02-20T08:26:25.655Z,379.00
2024-02-20T08:27:24.493Z,359.00
2024-02-20T08:28:24.659Z,390.00
2024-02-20T08:29:24.698Z,368.00
2024-02-20T08:30:24.084Z,392.00
2024-02-20T08:31:23.948Z,346.00
2024-02-20T08:32:26.589Z,379.00
2024-02-20T08:33:26.797Z,399.00
2024-02-20T08:34:24.553Z,434.00
2024-02-20T08:35:25.071Z,446.00
2024-02-20T08:36:24.806Z,384.00
2024-02-20T08:37:24.685Z,409.00
2024-02-20T08:38:25.974Z,443.00
2024-02-20T08:39:25.011Z,419.00
2024-02-20T08:40:26.989Z,488.00
2024-02-20T08:41:25.136Z,530.00
2024-02-20T08:42:25.400Z,505.00
2024-02-20T08:43:25.671Z,474.00
2024-02-20T08:44:25.720Z,477.00
2024-02-20T08:45:25.946Z,431.00
2024-02-20T08:46:26.231Z,468.00
2024-02-20T08:47:25.847Z,442.00
2024-02-20T08:48:26.166Z,463.00
2024-02-20T08:49:32.230Z,468.00
2024-02-20T08:50:26.717Z,485.00
2024-02-20T08:51:29.000Z,506.00
2024-02-20T08:52:26.644Z,448.00
2024-02-20T08:53:27.886Z,474.00
2024-02-20T08:54:26.859Z,468.00
2024-02-20T08:55:27.276Z,486.00
2024-02-20T08:56:27.181Z,485.00
2024-02-20T08:57:27.497Z,493.00
2024-02-20T08:58:27.855Z,476.00
2024-02-20T08:59:27.829Z,435.00
2024-02-20T09:00:27.597Z,456.00
2024-02-20T09:01:28.592Z,445.00
2024-02-20T09:02:28.040Z,447.00
2024-02-20T09:03:29.140Z,438.00
2024-02-20T09:04:29.131Z,471.00
2024-02-20T09:05:29.801Z,457.00
2024-02-20T09:06:28.436Z,465.00
2024-02-20T09:07:28.767Z,444.00
2024-02-20T09:08:28.962Z,453.00
2024-02-20T09:09:29.743Z,358.00
2024-02-20T09:10:31.258Z,429.00
2024-02-20T09:11:30.563Z,397.00
2024-02-20T09:12:29.176Z,405.00
2024-02-20T09:13:30.296Z,417.00
2024-02-20T09:14:30.569Z,491.00
2024-02-20T09:15:32.429Z,498.00
2024-02-20T09:16:30.613Z,492.00
2024-02-20T09:17:31.007Z,506.00
2024-02-20T09:18:31.066Z,498.00
2024-02-20T09:19:30.981Z,513.00
2024-02-20T09:20:31.203Z,525.00
2024-02-20T09:21:31.322Z,511.00
2024-02-20T09:22:31.947Z,507.00
2024-02-20T09:23:30.628Z,517.00
2024-02-20T09:24:30.585Z,513.00
2024-02-20T09:25:30.987Z,519.00
2024-02-20T09:26:31.022Z,515.00
2024-02-20T09:27:31.932Z,517.00
2024-02-20T09:28:31.343Z,502.00
2024-02-20T09:29:33.239Z,493.00
2024-02-20T09:30:32.506Z,500.00
2024-02-20T09:32:48.177Z,568.00
2024-02-20T09:35:05.843Z,602.00
2024-02-20T09:37:19.386Z,611.00
2024-02-20T09:38:40.558Z,611.00
2024-02-20T09:39:20.800Z,610.00
2024-02-20T09:40:20.620Z,617.00
2024-02-20T09:41:21.332Z,623.00
2024-02-20T09:42:19.899Z,626.00
2024-02-20T09:43:20.996Z,639.00
2024-02-20T09:44:19.999Z,635.00
2024-02-20T09:45:20.449Z,641.00
2024-02-20T09:46:21.346Z,648.00
2024-02-20T09:47:20.368Z,654.00
2024-02-20T09:48:20.866Z,660.00
2024-02-20T09:49:20.897Z,658.00
2024-02-20T09:50:20.702Z,656.00
2024-02-20T09:51:22.252Z,644.00
2024-02-20T09:52:22.112Z,631.00
2024-02-20T09:53:21.302Z,605.00
2024-02-20T09:54:22.452Z,600.00
2024-02-20T09:55:21.705Z,590.00
2024-02-20T09:56:22.532Z,589.00
2024-02-20T09:57:21.645Z,584.00
2024-02-20T09:58:22.073Z,593.00
2024-02-20T09:59:23.091Z,610.00
2024-02-20T10:00:22.081Z,616.00
2024-02-20T10:01:22.532Z,628.00
2024-02-20T10:02:24.045Z,649.00
2024-02-20T10:03:23.440Z,673.00
2024-02-20T10:04:23.728Z,691.00
2024-02-20T10:05:23.727Z,692.00
2024-02-20T10:06:22.994Z,727.00
2024-02-20T10:07:23.972Z,707.00
2024-02-20T10:08:23.127Z,693.00
2024-02-20T10:09:23.062Z,693.00
2024-02-20T10:10:23.515Z,688.00
2024-02-20T10:11:24.465Z,699.00
2024-02-20T10:12:23.760Z,708.00
2024-02-20T10:13:24.643Z,703.00
2024-02-20T10:14:25.972Z,699.00
2024-02-20T10:15:24.722Z,686.00
2024-02-20T10:16:24.185Z,674.00
2024-02-20T10:17:24.282Z,672.00
2024-02-20T10:18:24.460Z,672.00
2024-02-20T10:29:46.322Z,658.00
2024-02-20T10:30:47.142Z,643.00
2024-02-20T10:31:44.536Z,620.00
2024-02-20T10:32:45.054Z,613.00
2024-02-20T10:33:43.910Z,627.00
2024-02-20T10:34:46.060Z,644.00
2024-02-20T10:35:46.243Z,651.00
2024-02-20T10:36:45.252Z,690.00
2024-02-20T10:37:45.376Z,707.00
2024-02-20T10:38:49.982Z,743.00
2024-02-20T10:39:45.369Z,784.00
2024-02-20T10:40:45.850Z,827.00
2024-02-20T10:41:47.901Z,823.00
2024-02-20T10:42:45.785Z,809.00
2024-02-20T10:43:47.404Z,832.00
2024-02-20T10:44:47.491Z,844.00
2024-02-20T10:45:46.228Z,840.00
2024-02-20T10:46:45.731Z,846.00
2024-02-20T10:47:45.723Z,857.00
2024-02-20T10:48:45.356Z,898.00
2024-02-20T10:49:48.744Z,918.00
2024-02-20T10:50:47.214Z,863.00
2024-02-20T10:51:45.502Z,835.00
2024-02-20T10:52:45.712Z,824.00
2024-02-20T10:53:48.379Z,827.00
2024-02-20T10:54:49.690Z,860.00
2024-02-20T10:55:48.818Z,868.00
2024-02-20T10:56:46.172Z,853.00
2024-02-20T10:57:47.064Z,855.00
2024-02-20T10:58:47.224Z,876.00
2024-02-20T10:59:46.483Z,913.00
2024-02-20T11:00:49.806Z,919.00
2024-02-20T11:01:51.614Z,971.00
2024-02-20T11:02:50.796Z,984.00
2024-02-20T11:03:58.961Z,966.00
2024-02-20T11:04:50.053Z,977.00
2024-02-20T11:05:50.934Z,988.00
2024-02-20T11:06:50.329Z,984.00
2024-02-20T11:07:49.621Z,976.00
2024-02-20T11:08:49.372Z,928.00
2024-02-20T11:09:52.087Z,930.00
2024-02-20T11:10:49.553Z,894.00
2024-02-20T11:11:49.750Z,855.00
2024-02-20T11:12:51.984Z,857.00
2024-02-20T11:13:50.152Z,869.00
2024-02-20T11:14:50.290Z,854.00
2024-02-20T11:15:51.464Z,782.00
2024-02-20T11:16:51.611Z,662.00
2024-02-20T11:17:48.969Z,589.00
2024-02-20T11:18:52.672Z,587.00
2024-02-20T11:19:52.953Z,591.00
2024-02-20T11:20:52.707Z,604.00
2024-02-20T11:21:51.881Z,600.00
2024-02-20T11:22:50.528Z,690.00
2024-02-20T11:23:50.435Z,649.00
2024-02-20T11:24:51.023Z,670.00
2024-02-20T11:25:50.086Z,721.00
2024-02-20T11:26:51.067Z,773.00
2024-02-20T11:27:51.066Z,803.00
2024-02-20T11:28:52.450Z,825.00
2024-02-20T11:29:51.375Z,858.00
2024-02-20T11:30:51.288Z,859.00
2024-02-20T11:31:51.633Z,861.00
2024-02-20T11:32:52.566Z,866.00
2024-02-20T11:33:53.761Z,858.00
2024-02-20T11:34:52.641Z,857.00
2024-02-20T11:35:54.962Z,922.00
2024-02-20T11:36:53.223Z,977.00
2024-02-20T11:37:54.766Z,1038.00
2024-02-20T11:38:54.854Z,1055.00
2024-02-20T11:39:56.279Z,1048.00
2024-02-20T11:40:55.318Z,1019.00
2024-02-20T11:41:53.824Z,976.00
2024-02-20T11:42:53.846Z,964.00
2024-02-20T11:43:54.168Z,970.00
2024-02-20T11:44:53.939Z,973.00
2024-02-20T11:45:54.230Z,963.00
2024-02-20T11:46:55.511Z,996.00
2024-02-20T11:47:59.142Z,889.00
2024-02-20T11:48:54.469Z,994.00
2024-02-20T11:49:55.631Z,1067.00
2024-02-20T11:50:55.989Z,1024.00
2024-02-20T11:51:57.841Z,965.00
2024-02-20T11:52:58.218Z,974.00
2024-02-20T11:53:54.538Z,1034.00
2024-02-20T11:54:54.607Z,999.00
2024-02-20T11:55:54.963Z,1007.00
2024-02-20T11:56:53.838Z,1067.00
2024-02-20T11:57:55.183Z,910.00
2024-02-20T11:58:56.089Z,1001.00
2024-02-20T11:59:57.794Z,1006.00
2024-02-20T12:00:56.428Z,1087.00
2024-02-20T12:01:56.105Z,1099.00
2024-02-20T12:02:54.594Z,882.00
2024-02-20T12:03:55.729Z,920.00
2024-02-20T12:04:55.793Z,1106.00
2024-02-20T12:05:55.988Z,966.00
2024-02-20T12:06:58.767Z,1090.00
2024-02-20T12:07:56.203Z,1106.00
2024-02-20T12:08:56.098Z,1134.00
2024-02-20T12:09:59.934Z,804.00
2024-02-20T12:10:56.514Z,1136.00
2024-02-20T12:11:56.649Z,1117.00
2024-02-20T12:12:55.847Z,894.00
2024-02-20T12:13:56.667Z,1107.00
2024-02-20T12:14:56.377Z,1102.00
2024-02-20T12:15:57.353Z,755.00
2024-02-20T12:16:56.666Z,810.00
2024-02-20T12:17:56.787Z,858.00
2024-02-20T12:19:56.955Z,628.00
2024-02-20T12:20:57.795Z,1093.00
2024-02-20T12:21:57.088Z,1042.00
2024-02-20T12:22:57.850Z,719.00
2024-02-20T12:23:59.086Z,610.00
2024-02-20T12:25:02.221Z,686.00
2024-02-20T12:26:02.182Z,1124.00
2024-02-20T12:26:57.580Z,1108.00
2024-02-20T12:28:00.320Z,986.00
2024-02-20T12:28:59.878Z,1079.00
2024-02-20T12:29:58.037Z,915.00
2024-02-20T12:30:58.837Z,1063.00
2024-02-20T12:31:59.031Z,763.00
2024-02-20T12:32:58.428Z,838.00
2024-02-20T12:34:00.270Z,892.00
2024-02-20T12:34:58.707Z,1054.00
2024-02-20T12:36:00.437Z,1109.00
2024-02-20T12:36:58.855Z,1149.00
2024-02-20T12:37:59.721Z,1160.00
2024-02-20T12:39:01.254Z,1214.00
2024-02-20T12:40:00.123Z,1279.00
2024-02-20T12:40:59.316Z,1255.00
2024-02-20T12:42:00.353Z,1347.00
2024-02-20T12:42:59.561Z,1244.00
2024-02-20T12:44:03.262Z,1051.00
2024-02-20T12:45:00.567Z,1323.00
2024-02-20T12:46:00.025Z,1263.00
2024-02-20T12:47:00.921Z,954.00
2024-02-20T12:48:01.215Z,736.00
2024-02-20T12:49:02.047Z,873.00
2024-02-20T12:50:02.366Z,719.00
2024-02-20T12:51:01.261Z,367.00
2024-02-20T12:52:02.434Z,534.00
2024-02-20T12:53:00.804Z,293.00
2024-02-20T12:54:02.584Z,530.00
2024-02-20T12:55:03.027Z,311.00
2024-02-20T12:56:01.184Z,603.00
2024-02-20T12:57:03.104Z,578.00
2024-02-20T12:58:02.459Z,566.00
2024-02-20T12:59:02.670Z,731.00
2024-02-20T13:00:01.711Z,815.00
2024-02-20T13:01:02.987Z,535.00
2024-02-20T13:02:02.049Z,788.00
2024-02-20T13:03:02.985Z,800.00
2024-02-20T13:04:03.331Z,718.00
2024-02-20T13:05:02.589Z,746.00
2024-02-20T13:06:02.536Z,405.00
2024-02-20T13:07:04.382Z,790.00
2024-02-20T13:08:03.732Z,661.00
2024-02-20T13:09:03.897Z,751.00
2024-02-20T13:10:03.128Z,843.00
2024-02-20T13:11:04.133Z,799.00
2024-02-20T13:12:04.152Z,748.00
2024-02-20T13:13:04.617Z,705.00
2024-02-20T13:14:03.539Z,625.00
2024-02-20T13:15:05.289Z,530.00
2024-02-20T13:16:03.783Z,666.00
2024-02-20T13:17:03.845Z,650.00
2024-02-20T13:18:05.851Z,475.00
2024-02-20T13:19:05.184Z,616.00
2024-02-20T13:20:06.110Z,596.00
2024-02-20T13:21:04.317Z,493.00
2024-02-20T13:22:07.097Z,515.00
2024-02-20T13:23:05.646Z,454.00
2024-02-20T13:24:05.737Z,518.00
2024-02-20T13:25:08.014Z,384.00
2024-02-20T13:26:04.997Z,438.00
2024-02-20T13:27:09.247Z,462.00
2024-02-20T13:28:06.261Z,505.00
2024-02-20T13:29:06.355Z,518.00
2024-02-20T13:30:08.145Z,547.00
2024-02-20T13:31:08.915Z,574.00
2024-02-20T13:32:05.776Z,592.00
2024-02-20T13:33:07.020Z,602.00
2024-02-20T13:34:05.979Z,592.00
2024-02-20T13:35:07.794Z,581.00
2024-02-20T13:36:06.164Z,575.00
2024-02-20T13:37:06.381Z,575.00
2024-02-20T13:38:07.255Z,581.00
2024-02-20T13:39:07.418Z,544.00
2024-02-20T13:40:06.728Z,517.00
2024-02-20T13:41:08.271Z,475.00
2024-02-20T13:42:07.099Z,434.00
2024-02-20T13:43:08.690Z,424.00
2024-02-20T13:44:07.278Z,443.00
2024-02-20T13:45:07.341Z,484.00
2024-02-20T13:46:08.777Z,508.00
2024-02-20T13:47:14.772Z,572.00
2024-02-20T13:48:09.713Z,585.00
2024-02-20T13:49:08.019Z,579.00
2024-02-20T13:50:08.002Z,574.00
2024-02-20T13:51:09.755Z,561.00
2024-02-20T13:52:09.286Z,559.00
2024-02-20T13:53:08.507Z,562.00
2024-02-20T13:54:09.471Z,563.00
2024-02-20T13:55:08.636Z,562.00
2024-02-20T13:56:10.642Z,527.00
2024-02-20T13:57:08.879Z,560.00
2024-02-20T13:58:09.021Z,548.00
2024-02-20T13:59:09.086Z,522.00
2024-02-20T14:00:10.023Z,500.00
2024-02-20T14:01:10.569Z,487.00
2024-02-20T14:02:10.474Z,473.00
2024-02-20T14:03:09.614Z,481.00
2024-02-20T14:04:09.775Z,492.00
2024-02-20T14:05:10.059Z,501.00
2024-02-20T14:06:12.753Z,393.00
2024-02-20T14:07:12.246Z,516.00
2024-02-20T14:08:10.340Z,508.00
2024-02-20T14:09:13.010Z,491.00
2024-02-20T14:10:10.576Z,380.00
2024-02-20T14:11:10.758Z,463.00
2024-02-20T14:12:12.466Z,411.00
2024-02-20T14:13:10.966Z,393.00
2024-02-20T14:14:13.527Z,394.00
2024-02-20T14:15:12.848Z,439.00
2024-02-20T14:16:15.106Z,444.00
2024-02-20T14:17:11.441Z,341.00
2024-02-20T14:18:13.389Z,455.00
2024-02-20T14:19:12.616Z,377.00
2024-02-20T14:20:12.804Z,450.00
2024-02-20T14:21:12.127Z,447.00
2024-02-20T14:22:13.992Z,436.00
2024-02-20T14:23:16.138Z,429.00
2024-02-20T14:24:14.696Z,420.00
2024-02-20T14:25:13.485Z,412.00
2024-02-20T14:26:12.545Z,407.00
2024-02-20T14:27:13.770Z,400.00
2024-02-20T14:28:16.545Z,384.00
2024-02-20T14:29:12.933Z,370.00
2024-02-20T14:30:14.027Z,354.00
2024-02-20T14:31:13.263Z,337.00
2024-02-20T14:32:13.361Z,324.00
2024-02-20T14:33:15.287Z,320.00
2024-02-20T14:34:14.698Z,316.00
2024-02-20T14:35:13.868Z,307.00
2024-02-20T14:36:14.900Z,315.00
2024-02-20T14:37:17.269Z,314.00
2024-02-20T14:38:15.205Z,330.00
2024-02-20T14:39:14.255Z,306.00
2024-02-20T14:40:14.456Z,325.00
2024-02-20T14:41:15.355Z,321.00
2024-02-20T14:42:14.945Z,321.00
2024-02-20T14:43:15.650Z,329.00
2024-02-20T14:44:15.769Z,318.00
2024-02-20T14:45:15.068Z,324.00
2024-02-20T14:46:16.590Z,337.00
2024-02-20T14:47:16.039Z,346.00
2024-02-20T14:48:21.221Z,361.00
2024-02-20T14:49:19.571Z,360.00
2024-02-20T14:50:16.550Z,369.00
2024-02-20T14:51:19.026Z,362.00
2024-02-20T14:52:19.535Z,330.00
2024-02-20T14:53:16.942Z,349.00
2024-02-20T14:54:16.148Z,339.00
2024-02-20T14:55:16.366Z,336.00
2024-02-20T14:56:16.493Z,319.00
2024-02-20T14:57:21.288Z,288.00
2024-02-20T14:58:18.509Z,266.00
2024-02-20T14:59:16.814Z,269.00
2024-02-20T15:00:16.942Z,273.00
2024-02-20T15:01:17.131Z,262.00
2024-02-20T15:02:18.878Z,254.00
2024-02-20T15:03:20.654Z,259.00
2024-02-20T15:04:17.595Z,264.00
2024-02-20T15:05:17.737Z,265.00
2024-02-20T15:06:18.035Z,256.00
2024-02-20T15:07:19.725Z,257.00
2024-02-20T15:08:18.368Z,254.00
2024-02-20T15:09:20.703Z,262.00
2024-02-20T15:10:18.238Z,263.00
2024-02-20T15:11:18.468Z,242.00
2024-02-20T15:12:20.163Z,228.00
2024-02-20T15:13:18.759Z,216.00
2024-02-20T15:14:20.517Z,197.00
2024-02-20T15:15:19.315Z,184.00
2024-02-20T15:16:20.754Z,184.00
2024-02-20T15:17:20.142Z,180.00
2024-02-20T15:18:20.930Z,179.00
2024-02-20T15:19:21.200Z,174.00
2024-02-20T15:20:19.835Z,178.00
2024-02-20T15:21:19.720Z,181.00
2024-02-20T15:22:21.508Z,184.00
2024-02-20T15:23:21.721Z,176.00
2024-02-20T15:24:19.992Z,173.00
2024-02-20T15:25:21.811Z,184.00
2024-02-20T15:26:22.012Z,180.00
2024-02-20T15:27:20.472Z,189.00
2024-02-20T15:28:22.220Z,190.00
2024-02-20T15:29:22.476Z,186.00
2024-02-20T15:30:21.774Z,187.00
2024-02-20T15:31:20.942Z,194.00
2024-02-20T15:32:22.780Z,177.00
2024-02-20T15:33:21.346Z,208.00
2024-02-20T15:34:23.145Z,204.00
2024-02-20T15:35:23.355Z,206.00
2024-02-20T15:36:21.526Z,206.00
2024-02-20T15:37:21.769Z,175.00
2024-02-20T15:38:21.904Z,179.00
2024-02-20T15:39:21.914Z,182.00
2024-02-20T15:40:22.088Z,128.00
2024-02-20T15:41:22.185Z,153.00
2024-02-20T15:42:23.328Z,143.00
2024-02-20T15:43:22.561Z,149.00
2024-02-20T15:44:24.299Z,134.00
2024-02-20T15:45:22.753Z,133.00
2024-02-20T15:46:22.921Z,129.00
2024-02-20T15:47:23.078Z,129.00
2024-02-20T15:48:23.334Z,112.00
2024-02-20T15:49:25.043Z,115.00
2024-02-20T15:50:23.506Z,102.00
2024-02-20T15:51:26.193Z,101.00
2024-02-20T15:52:23.680Z,98.00
2024-02-20T15:53:23.763Z,93.00
2024-02-20T15:54:25.541Z,102.00
2024-02-20T15:55:24.104Z,97.00
2024-02-20T15:56:25.823Z,101.00
2024-02-20T15:57:24.393Z,103.00
2024-02-20T15:58:26.183Z,103.00
2024-02-20T15:59:26.403Z,109.00
2024-02-20T16:00:24.790Z,123.00
2024-02-20T16:01:24.952Z,127.00
2024-02-20T16:02:25.047Z,118.00
2024-02-20T16:03:25.218Z,115.00
2024-02-20T16:04:26.990Z,113.00
2024-02-20T16:05:27.203Z,114.00
2024-02-20T16:06:27.443Z,114.00
2024-02-20T16:07:25.748Z,114.00
2024-02-20T16:08:27.456Z,115.00
2024-02-20T16:09:27.701Z,109.00
2024-02-20T16:10:27.954Z,104.00
2024-02-20T16:11:28.207Z,95.00
2024-02-20T16:12:27.919Z,87.00
2024-02-20T16:13:28.196Z,80.00
2024-02-20T16:14:28.456Z,75.00
2024-02-20T16:15:28.909Z,74.00
2024-02-20T16:16:28.483Z,71.00
2024-02-20T16:28:50.253Z,37.00
2024-02-20T16:29:50.462Z,35.00
2024-02-20T16:30:50.476Z,28.00
2024-02-20T16:31:50.662Z,27.00
2024-02-20T16:32:53.225Z,22.00
2024-02-20T16:33:50.904Z,23.00
2024-02-20T16:34:51.099Z,22.00
2024-02-20T16:35:52.093Z,22.00
2024-02-20T16:36:51.272Z,19.00
2024-02-20T16:37:53.962Z,18.00
2024-02-20T16:38:51.683Z,17.00
2024-02-20T16:39:51.652Z,17.00
2024-02-20T16:40:51.906Z,15.00
2024-02-20T16:41:51.951Z,15.00
2024-02-20T16:42:52.055Z,11.00
2024-02-20T16:43:53.196Z,12.00
2024-02-20T16:44:52.299Z,8.00
2024-02-20T16:45:52.419Z,9.00
2024-02-20T16:46:52.671Z,7.00
2024-02-20T16:47:52.727Z,7.00
2024-02-20T16:48:52.868Z,5.00
2024-02-20T16:49:54.057Z,7.00
2024-02-20T16:50:53.090Z,7.00
2024-02-20T16:51:53.224Z,5.00
2024-02-20T16:52:53.427Z,3.00
2024-02-20T16:53:53.454Z,3.00
2024-02-20T16:54:53.610Z,3.00
2024-02-20T16:55:53.812Z,2.00
2024-02-20T16:56:53.888Z,2.00
2024-02-20T16:57:54.069Z,2.00
2024-02-20T16:58:54.211Z,1.00
2024-02-20T16:59:54.285Z,2.00
2024-02-20T17:00:54.439Z,1.00
2024-02-20T17:01:54.571Z,1.00
2024-02-20T17:02:54.638Z,1.00
2024-02-20T17:03:54.740Z,1.00
2024-02-20T17:04:55.003Z,0.00
2024-02-20T17:05:55.134Z,0.00
2024-02-20T17:06:55.208Z,0.00
2024-02-20T17:07:55.404Z,0.00
2024-02-20T17:08:55.385Z,0.00
2024-02-20T17:09:55.570Z,0.00
2024-02-20T17:10:55.845Z,0.00
2024-02-20T17:11:55.817Z,0.00
2024-02-20T17:12:55.904Z,0.00
2024-02-20T17:13:56.074Z,0.00
2024-02-20T17:14:56.164Z,0.00
2024-02-20T17:15:56.319Z,0.00
2024-02-20T17:16:56.631Z,0.00
2024-02-20T17:17:56.634Z,0.00
2024-02-20T17:18:56.794Z,0.00
2024-02-20T17:19:56.931Z,0.00
2024-02-20T17:20:57.094Z,0.00
2024-02-20T17:21:57.152Z,0.00
2024-02-20T17:22:57.337Z,0.00
2024-02-20T17:23:57.406Z,0.00
2024-02-20T17:24:57.551Z,0.00
2024-02-20T17:25:57.740Z,0.00